»·PEaware :: QXE2321 KSMX-KRAL

QXE2321 :: KSMX-KRAL

FLIGHT INFORMATION

Flight Status: Arrived
Operator:
Horizon Air
More flights by this operator :: More flights under this callsign
Pilot: Alfonso U. (14209)
Aircraft: DEHAVILLAND DASH 8 400
(DH8D)
More flights by this aircraft type
Origin: KSMX Santa Maria Pub/Capt Hancock
United States
Destination: KRAL Riverside Mun
United States
More flights between these airports :: More routes between these airports
Route: +RZS V186 PDZ
File this flight plan on PilotEdge
Remarks: TEC route SBAN52
Altitude:
(Current/Filed)
9,000ft
Speed:
(Current/Filed)
400kts
Departed: 17-Sep-17 01:11 PM
Arrived: 17-Sep-17 02:07 PM
Distance/Time
Traveled:
160nm/0:56
Distance/Time
To Go:
Arrived

Flight Plot

Page will automatically refresh every two minutes.


Map Options




Map Legend


Flown Route
Filed Route
Departure Airport
Arrival Airport
Navaid (VOR, NDB)
Fix

Horizontal Profiles

Position Reports

Time Latitude Longitude Heading Altitude Ground
Speed
17-Sep-17 12:34 34.896792 -120.445773 273 268ft 0kts
17-Sep-17 12:35 34.896792 -120.445773 273 268ft 0kts
17-Sep-17 12:41 34.896792 -120.445773 273 268ft 0kts
17-Sep-17 12:42 34.896792 -120.445773 273 268ft 0kts
17-Sep-17 12:43 34.896792 -120.445773 273 268ft 0kts
17-Sep-17 12:44 34.896792 -120.445773 273 268ft 0kts
17-Sep-17 12:45 34.896792 -120.445773 273 268ft 0kts
17-Sep-17 12:46 34.896792 -120.445773 273 268ft 0kts
17-Sep-17 12:47 34.896792 -120.445773 273 268ft 0kts
17-Sep-17 12:48 34.896792 -120.445773 273 268ft 0kts
17-Sep-17 12:49 34.896792 -120.445773 273 268ft 0kts
17-Sep-17 12:50 34.896792 -120.445773 273 268ft 0kts
17-Sep-17 12:51 34.896792 -120.445773 273 268ft 0kts
17-Sep-17 12:52 34.896792 -120.445773 273 268ft 0kts
17-Sep-17 12:53 34.896792 -120.445773 273 268ft 0kts
17-Sep-17 12:54 34.896792 -120.445773 273 268ft 0kts
17-Sep-17 12:55 34.896792 -120.445773 273 268ft 0kts
17-Sep-17 12:56 34.896792 -120.445773 273 268ft 0kts
17-Sep-17 12:57 34.896792 -120.445773 273 268ft 0kts
17-Sep-17 12:58 34.896792 -120.445773 273 268ft 0kts
17-Sep-17 12:59 34.896792 -120.445773 273 268ft 0kts
17-Sep-17 13:00 34.896792 -120.445773 273 268ft 0kts
17-Sep-17 13:01 34.896792 -120.445773 273 268ft 0kts
17-Sep-17 13:02 34.896792 -120.445773 273 268ft 0kts
17-Sep-17 13:03 34.896792 -120.445773 273 268ft 0kts
17-Sep-17 13:04 34.896792 -120.445773 273 268ft 0kts
17-Sep-17 13:05 34.896792 -120.445773 273 268ft 0kts
17-Sep-17 13:06 34.896793 -120.445773 273 268ft 0kts
17-Sep-17 13:07 34.896793 -120.445773 273 268ft 0kts
17-Sep-17 13:08 34.896793 -120.445789 273 268ft 1kts
17-Sep-17 13:09 34.895196 -120.446166 136 268ft 21kts
17-Sep-17 13:10 34.893377 -120.444954 181 268ft 0kts
17-Sep-17 13:11 34.893377 -120.444954 181 268ft 0kts
17-Sep-17 13:12 34.893377 -120.444954 181 268ft 0kts
17-Sep-17 13:13 34.893377 -120.444954 181 268ft 0kts
17-Sep-17 13:14 34.892911 -120.445961 320 268ft 12kts
17-Sep-17 13:15 34.916660 -120.471645 352 1730ft 157kts
17-Sep-17 13:16 34.926208 -120.431838 110 4352ft 156kts
17-Sep-17 13:17 34.907184 -120.369148 112 5137ft 259kts
17-Sep-17 13:18 34.878733 -120.283552 112 4967ft 253kts
17-Sep-17 13:19 34.854655 -120.210400 112 5037ft 250kts
17-Sep-17 13:20 34.826917 -120.132689 130 5019ft 260kts
17-Sep-17 13:21 34.774104 -120.072092 136 6741ft 269kts
17-Sep-17 13:22 34.719810 -120.010392 136 9172ft 274kts
17-Sep-17 13:23 34.662519 -119.945220 136 9020ft 283kts
17-Sep-17 13:24 34.606262 -119.881210 136 9024ft 280kts
17-Sep-17 13:25 34.550039 -119.817229 136 9022ft 280kts
17-Sep-17 13:26 34.500183 -119.752150 123 9025ft 281kts
17-Sep-17 13:27 34.455894 -119.672052 122 9026ft 299kts
17-Sep-17 13:28 34.409871 -119.587397 122 9023ft 307kts
17-Sep-17 13:29 34.362753 -119.500876 122 9024ft 310kts
17-Sep-17 13:30 34.322603 -119.411303 93 9018ft 309kts
17-Sep-17 13:31 34.324865 -119.314319 84 9012ft 290kts
17-Sep-17 13:32 34.328648 -119.220476 79 8842ft 281kts
17-Sep-17 13:33 34.338254 -119.127643 83 8808ft 280kts
17-Sep-17 13:34 34.345310 -119.035867 84 8768ft 279kts
17-Sep-17 13:35 34.352222 -118.941915 84 9011ft 282kts
17-Sep-17 13:36 34.345219 -118.852266 108 9015ft 272kts
17-Sep-17 13:37 34.318239 -118.768792 111 9012ft 266kts
17-Sep-17 13:38 34.290485 -118.687087 111 9010ft 263kts
17-Sep-17 13:39 34.262733 -118.605968 111 9008ft 262kts
17-Sep-17 13:40 34.235631 -118.526932 111 9017ft 261kts
17-Sep-17 13:41 34.210724 -118.449378 109 9009ft 258kts
17-Sep-17 13:42 34.188186 -118.375238 108 9012ft 257kts
17-Sep-17 13:43 34.168362 -118.310031 109 9015ft 256kts
17-Sep-17 13:44 34.146110 -118.237026 109 9021ft 256kts
17-Sep-17 13:45 34.124415 -118.166033 109 8839ft 248kts
17-Sep-17 13:46 34.104674 -118.101338 110 7468ft 249kts
17-Sep-17 13:47 34.086631 -118.038738 94 6007ft 255kts
17-Sep-17 13:48 34.084541 -117.956573 91 5040ft 242kts
17-Sep-17 13:49 34.082547 -117.877563 91 5050ft 233kts
17-Sep-17 13:50 34.080354 -117.800697 91 5051ft 229kts
17-Sep-17 13:51 34.078286 -117.725206 91 5041ft 227kts
17-Sep-17 13:52 34.076555 -117.657483 91 5031ft 225kts
17-Sep-17 13:53 34.074949 -117.589919 91 5022ft 225kts
17-Sep-17 13:54 34.073377 -117.526535 91 5024ft 224kts
17-Sep-17 13:55 34.071851 -117.470750 91 5026ft 223kts
17-Sep-17 13:56 34.069962 -117.406755 91 5028ft 222kts
17-Sep-17 13:57 34.067934 -117.341751 91 5029ft 222kts
17-Sep-17 13:58 34.063548 -117.267955 119 5010ft 222kts
17-Sep-17 13:59 34.012186 -117.229474 152 5029ft 221kts
17-Sep-17 14:00 33.962620 -117.197629 152 4852ft 214kts
17-Sep-17 14:01 33.914491 -117.167036 152 4011ft 203kts
17-Sep-17 14:02 33.865418 -117.136339 152 4021ft 199kts
17-Sep-17 14:03 33.829801 -117.155621 291 4032ft 186kts
17-Sep-17 14:04 33.866890 -117.196798 321 4026ft 183kts
17-Sep-17 14:05 33.901839 -117.239998 294 4026ft 183kts
17-Sep-17 14:06 33.921345 -117.292209 294 4097ft 162kts
17-Sep-17 14:07 33.929744 -117.328926 284 3365ft 117kts
17-Sep-17 14:08 33.936902 -117.364616 283 2371ft 110kts
17-Sep-17 14:09 33.943934 -117.400568 283 1270ft 109kts
17-Sep-17 14:10 33.950408 -117.433875 282 857ft 105kts
17-Sep-17 14:11 33.952763 -117.449084 181 823ft 2kts
17-Sep-17 14:12 33.952758 -117.449084 181 823ft 0kts
17-Sep-17 14:13 33.952754 -117.449084 180 823ft 0kts
17-Sep-17 14:14 33.951434 -117.443308 103 823ft 40kts
17-Sep-17 14:15 33.949579 -117.436551 92 823ft 0kts
17-Sep-17 14:16 33.949579 -117.436551 92 823ft 0kts
17-Sep-17 14:17 33.949579 -117.436551 92 823ft 0kts
17-Sep-17 14:18 33.949579 -117.436551 92 823ft 0kts

Navigation Log

Ident Type
1. KSMX Airport
2. RZS Navaid
3. ZIQOR Fix
4. DEANO Fix
5. HENER Fix
6. FIM Navaid
7. SESPE Fix
8. VNY Navaid
9. DARTS Fix
10. PURMS Fix
11. ELMOO Fix
12. ITSME Fix
13. PIRRO Fix
14. ADAMM Fix
15. BAYJY Fix
16. TIFNI Fix
17. PDZ Navaid
18. KRAL Airport